Overview Statistics Trail Chart Weather Telemetry Raw packets
 

This is the latest recevied weather packets stored in our database for station/object W0AKY-13. If no packets are shown the sender has not sent any weather packets the latest 10 day(s).

<< 64 65 66 67 68 69 70 >>
Time Temp. Humidity Pressure Rain* Wind** Luminosity Snow
1788093909 22.22° C 96% 1012 hPa 0 mm - 24 W/m² -
1788093605 22.22° C 97% 1012 hPa 0 mm - 26 W/m² -
1788093301 22.22° C 97% 1012 hPa 0 mm - 24 W/m² -
1788093001 21.67° C 97% 1012.3 hPa 0 mm - 19 W/m² -
1788092699 21.67° C 97% 1012.3 hPa 0 mm - 14 W/m² -
1788092394 21.67° C 96% 1012.5 hPa 0 mm - 9 W/m² -
1788092090 21.67° C 96% 1012.2 hPa 0 mm - 6 W/m² -
1788091789 21.67° C 96% 1012.4 hPa 0 mm - 4 W/m² -
1788091484 21.67° C 95% 1012.2 hPa 0 mm - 3 W/m² -
1788091181 21.67° C 95% 1012.6 hPa 0 mm - 2 W/m² -
1788090877 21.67° C 94% 1012.6 hPa 0 mm - 1 W/m² -
1788090573 22.22° C 94% 1012.6 hPa 0 mm - 1 W/m² -
1788090269 22.22° C 93% 1012.6 hPa 0 mm - 0 W/m² -
1788089980 22.22° C 92% 1012.3 hPa 0 mm - 0 W/m² -
1788089664 22.78° C 91% 1012.5 hPa 0 mm - 0 W/m² -
1788089359 22.78° C 89% 1012.2 hPa 0 mm - 0 W/m² -
1788089055 22.78° C 88% 1012.6 hPa 0 mm - 0 W/m² -
1788088751 23.33° C 88% 1012.6 hPa 0 mm - 0 W/m² -
1788088447 24.44° C 82% 1012.3 hPa 0 mm - 0 W/m² -
1788088141 25° C 78% 1012.4 hPa 0 mm - 0 W/m² -
1788087838 25.56° C 75% 1012.3 hPa 0 mm - 0 W/m² -
1788087536 25.56° C 71% 1012 hPa 0 mm - 0 W/m² -
1788087233 26.11° C 69% 1011.9 hPa 0 mm - 0 W/m² -
1788086929 26.11° C 68% 1011.8 hPa 0 mm - 0 W/m² -
1788086625 26.11° C 68% 1011.5 hPa 0 mm - 0 W/m² -

* Rain latest hour (hover to see other rain measurements)
** Current wind speed in m/s (hover to see current wind gust speed)